Time;durP1;ratioP1;P1;durP2;ratioP2;P2;SDS_P1;SDS_P2;PMS_P1;PMS_P2;Temp;Humidity;BMP_temperature;BMP_pressure;BME280_temperature;BME280_humidity;BME280_pressure;Samples;Min_cycle;Max_cycle;Signal;HPM_P1;HPM_P2
2021/03/21 00:01:11;;;;;;;16.67;10.40;;;-1.30;78.70;;;;;;4979520;28;21248;-83
2021/03/21 00:03:40;;;;;;;15.73;9.50;;;-1.20;78.80;;;;;;4991427;28;20212;-83
2021/03/21 00:06:08;;;;;;;18.10;9.77;;;-1.20;78.80;;;;;;4951390;28;20225;-83
2021/03/21 00:08:35;;;;;;;18.33;9.57;;;-1.20;78.70;;;;;;4992639;28;20269;-83
2021/03/21 00:11:06;;;;;;;14.70;9.10;;;-1.10;78.80;;;;;;4997761;28;20750;-83
2021/03/21 00:13:35;;;;;;;16.73;8.80;;;-1.10;78.80;;;;;;5002397;28;20224;-83
2021/03/21 00:16:06;;;;;;;15.13;10.43;;;-1.10;78.70;;;;;;4979068;28;21266;-82
2021/03/21 00:18:36;;;;;;;13.77;8.97;;;-1.00;78.70;;;;;;5013629;28;20200;-83
2021/03/21 00:21:06;;;;;;;16.07;9.90;;;-1.00;78.70;;;;;;5002634;28;20201;-82
2021/03/21 00:23:34;;;;;;;15.60;10.40;;;-0.90;78.70;;;;;;5008649;28;20264;-81
2021/03/21 00:26:02;;;;;;;16.30;10.07;;;-1.00;78.60;;;;;;4980839;28;20424;-82
2021/03/21 00:28:32;;;;;;;15.10;9.13;;;-1.10;78.60;;;;;;5016040;28;20233;-82
2021/03/21 00:31:01;;;;;;;14.90;8.87;;;-1.00;78.60;;;;;;5004188;28;20206;-83
2021/03/21 00:33:33;;;;;;;15.07;8.50;;;-1.00;78.70;;;;;;4998790;28;20378;-83
2021/03/21 00:36:01;;;;;;;14.37;9.60;;;-1.00;78.60;;;;;;4960983;28;20579;-82
2021/03/21 00:38:32;;;;;;;18.23;9.97;;;-0.90;78.70;;;;;;5003824;28;20330;-83
2021/03/21 00:41:00;;;;;;;13.13;8.80;;;-0.90;78.60;;;;;;4992108;28;20236;-82
2021/03/21 00:43:28;;;;;;;13.77;8.90;;;-0.90;78.70;;;;;;4990913;28;20209;-84
2021/03/21 00:45:56;;;;;;;15.10;9.23;;;-0.70;78.90;;;;;;4959337;28;20227;-82
2021/03/21 00:48:29;;;;;;;14.27;8.70;;;-0.90;78.70;;;;;;4990184;28;20264;-83
2021/03/21 00:50:59;;;;;;;14.83;8.67;;;-0.90;78.60;;;;;;4992425;28;20286;-84
2021/03/21 00:53:28;;;;;;;17.53;9.00;;;-0.90;78.60;;;;;;4973579;28;20645;-82
2021/03/21 00:55:57;;;;;;;13.30;7.97;;;-1.00;78.70;;;;;;4956373;28;20228;-82
2021/03/21 00:58:25;;;;;;;13.07;8.47;;;-0.90;78.80;;;;;;4994768;28;20620;-81
2021/03/21 01:00:55;;;;;;;16.57;9.43;;;-1.00;78.90;;;;;;4988581;28;20357;-81
2021/03/21 01:03:24;;;;;;;15.03;9.33;;;-1.10;79.00;;;;;;4993631;28;20567;-83
2021/03/21 01:05:59;;;;;;;14.27;8.47;;;-1.10;79.00;;;;;;4984120;28;20201;-85
2021/03/21 01:08:30;;;;;;;14.03;8.63;;;-1.00;79.00;;;;;;5015870;28;20203;-83
2021/03/21 01:11:03;;;;;;;12.80;8.60;;;-1.00;79.00;;;;;;4999174;28;20211;-82
2021/03/21 01:13:30;;;;;;;15.00;9.20;;;-1.00;78.90;;;;;;4992497;28;20227;-83
2021/03/21 01:15:58;;;;;;;15.57;9.70;;;-1.00;79.00;;;;;;4965375;28;20220;-82
2021/03/21 01:18:31;;;;;;;15.87;9.47;;;-1.00;79.00;;;;;;4997714;28;20200;-82
2021/03/21 01:21:03;;;;;;;15.33;9.00;;;-1.00;79.00;;;;;;4994374;28;20444;-83
2021/03/21 01:23:31;;;;;;;14.20;9.53;;;-1.00;79.00;;;;;;5011110;28;20189;-83
2021/03/21 01:26:00;;;;;;;15.27;9.53;;;-0.90;79.10;;;;;;4982979;28;20231;-83
2021/03/21 01:28:31;;;;;;;12.97;8.23;;;-1.00;79.10;;;;;;4992722;28;20205;-83
2021/03/21 01:31:01;;;;;;;16.03;8.63;;;-1.00;79.20;;;;;;4989375;28;20204;-83
2021/03/21 01:33:32;;;;;;;15.97;8.90;;;-1.10;79.00;;;;;;4995255;28;20239;-82
2021/03/21 01:36:00;;;;;;;15.13;8.43;;;-1.10;79.10;;;;;;4960923;28;20206;-83
2021/03/21 01:38:28;;;;;;;15.73;9.00;;;-1.10;79.10;;;;;;4993135;28;20428;-82
2021/03/21 01:41:00;;;;;;;13.37;8.50;;;-1.10;79.20;;;;;;4992854;28;20219;-82
2021/03/21 01:43:30;;;;;;;13.53;9.10;;;-1.10;79.20;;;;;;5002229;28;20204;-82
2021/03/21 01:45:59;;;;;;;12.63;8.50;;;-1.10;79.20;;;;;;4985513;28;20199;-83
2021/03/21 01:48:44;;;;;;;13.60;8.47;;;-1.10;79.40;;;;;;5017091;28;20220;-83
2021/03/21 01:51:15;;;;;;;13.70;8.67;;;-1.10;79.50;;;;;;5006449;28;20562;-82
2021/03/21 01:53:49;;;;;;;16.27;8.77;;;-1.20;79.50;;;;;;5019158;28;20244;-84
2021/03/21 01:56:18;;;;;;;11.50;7.37;;;-1.20;79.60;;;;;;4982385;28;20220;-83
2021/03/21 01:58:51;;;;;;;14.33;8.83;;;-1.20;79.60;;;;;;5008037;28;20211;-83
2021/03/21 02:01:24;;;;;;;13.03;8.63;;;-1.30;79.70;;;;;;4993182;28;20201;-83
2021/03/21 02:03:53;;;;;;;12.67;8.23;;;-1.30;79.90;;;;;;4993297;28;20234;-82
2021/03/21 02:06:46;;;;;;;14.00;8.47;;;-1.30;80.10;;;;;;4960680;28;20425;-83
2021/03/21 02:09:22;;;;;;;16.70;9.00;;;-1.30;79.90;;;;;;4998321;28;20285;-81
2021/03/21 02:12:02;;;;;;;13.27;8.10;;;-1.20;80.00;;;;;;5007668;28;20360;-82
2021/03/21 02:14:37;;;;;;;14.43;7.93;;;-1.30;80.00;;;;;;4980020;28;20235;-83
2021/03/21 02:17:13;;;;;;;14.67;7.93;;;-1.30;80.10;;;;;;4973926;28;20246;-81
2021/03/21 02:20:19;;;;;;;11.93;8.43;;;-1.30;80.10;;;;;;4991715;28;20207;-84
2021/03/21 02:22:52;;;;;;;12.57;8.33;;;-1.30;80.30;;;;;;4990704;28;20722;-83
2021/03/21 02:25:34;;;;;;;13.03;7.93;;;-1.30;80.30;;;;;;4964134;28;20298;-83
2021/03/21 02:28:41;;;;;;;13.20;8.27;;;-1.30;80.30;;;;;;4977921;28;20557;-81
2021/03/21 02:31:20;;;;;;;13.10;7.63;;;-1.30;80.30;;;;;;4928940;28;20255;-83
2021/03/21 02:33:56;;;;;;;13.73;8.03;;;-1.40;80.30;;;;;;4995558;28;20833;-83
2021/03/21 02:36:28;;;;;;;12.77;7.10;;;-1.30;80.60;;;;;;4965573;28;20234;-82
2021/03/21 02:39:01;;;;;;;11.47;7.73;;;-1.30;80.40;;;;;;4991782;28;20212;-81
2021/03/21 02:41:35;;;;;;;12.00;7.33;;;-1.20;80.50;;;;;;4991734;28;20281;-82
2021/03/21 02:44:07;;;;;;;12.90;8.20;;;-1.20;80.40;;;;;;4995979;28;20210;-83
2021/03/21 02:46:42;;;;;;;10.93;7.80;;;-1.10;80.50;;;;;;4966601;28;20332;-83
2021/03/21 02:49:23;;;;;;;14.07;7.50;;;-1.00;80.30;;;;;;4999333;28;20287;-83
2021/03/21 02:51:54;;;;;;;11.47;7.40;;;-1.10;80.30;;;;;;4974132;28;20216;-83
2021/03/21 02:54:32;;;;;;;12.80;7.00;;;-1.00;80.40;;;;;;4983174;28;20435;-83
2021/03/21 02:57:04;;;;;;;13.00;7.57;;;-1.00;80.40;;;;;;4975187;28;20230;-83
2021/03/21 02:59:36;;;;;;;13.33;7.20;;;-1.00;80.40;;;;;;5017205;28;20184;-83
2021/03/21 03:02:10;;;;;;;10.33;7.00;;;-1.00;80.40;;;;;;4999842;28;20211;-82
2021/03/21 03:04:41;;;;;;;13.67;7.80;;;-1.00;80.50;;;;;;4975223;28;20309;-84
2021/03/21 03:07:13;;;;;;;14.13;8.00;;;-1.00;80.50;;;;;;4972514;28;20266;-83
2021/03/21 03:09:46;;;;;;;12.30;7.03;;;-1.00;80.70;;;;;;4990979;28;20205;-82
2021/03/21 03:12:19;;;;;;;12.03;7.30;;;-1.00;80.70;;;;;;4993680;28;20209;-83
2021/03/21 03:14:48;;;;;;;11.30;7.40;;;-1.00;80.60;;;;;;4995614;28;20218;-83
2021/03/21 03:17:26;;;;;;;10.23;6.40;;;-1.00;80.70;;;;;;4999937;28;20511;-82
2021/03/21 03:19:58;;;;;;;11.03;7.03;;;-0.80;80.80;;;;;;4997177;28;20220;-83
2021/03/21 03:22:36;;;;;;;9.80;6.50;;;-0.90;80.80;;;;;;4997038;28;20220;-83
2021/03/21 03:25:22;;;;;;;9.83;6.57;;;-0.90;80.80;;;;;;4987372;28;20224;-85
2021/03/21 03:28:33;;;;;;;12.67;6.93;;;-0.90;80.80;;;;;;4994919;28;20599;-83
2021/03/21 03:31:08;;;;;;;9.90;6.90;;;-0.90;80.90;;;;;;4995133;28;20232;-82
2021/03/21 03:33:38;;;;;;;9.90;6.50;;;-1.00;81.00;;;;;;5015299;28;20224;-83
2021/03/21 03:36:08;;;;;;;11.27;7.17;;;-0.90;81.10;;;;;;4969122;28;20216;-82
2021/03/21 03:38:37;;;;;;;12.37;7.10;;;-0.90;81.20;;;;;;5014393;28;20201;-82
2021/03/21 03:41:08;;;;;;;10.57;6.53;;;-0.90;81.10;;;;;;5013773;28;20214;-82
2021/03/21 03:43:49;;;;;;;9.67;6.73;;;-0.90;81.20;;;;;;5000634;28;20510;-80
2021/03/21 03:46:20;;;;;;;10.60;7.13;;;-0.80;81.10;;;;;;4966239;28;20208;-82
2021/03/21 03:48:57;;;;;;;10.67;7.00;;;-0.80;81.10;;;;;;5015603;28;20199;-84
2021/03/21 03:51:31;;;;;;;9.87;6.37;;;-0.80;81.20;;;;;;5014837;28;20211;-83
2021/03/21 03:54:20;;;;;;;9.87;6.83;;;-0.70;81.20;;;;;;5011790;28;20243;-82
2021/03/21 03:56:54;;;;;;;11.33;6.90;;;-0.70;81.10;;;;;;4986013;28;20245;-83
2021/03/21 03:59:43;;;;;;;10.67;7.27;;;-0.60;81.20;;;;;;5018229;28;20215;-83
2021/03/21 04:02:19;;;;;;;8.50;6.37;;;-0.70;81.00;;;;;;5000830;28;20201;-83
2021/03/21 04:04:59;;;;;;;10.53;7.23;;;-0.60;81.00;;;;;;4974005;28;20704;-82
2021/03/21 04:07:38;;;;;;;12.87;7.30;;;-0.70;80.90;;;;;;4976043;28;20218;-83
2021/03/21 04:10:13;;;;;;;10.20;5.90;;;-0.60;80.90;;;;;;4994615;28;20219;-83
2021/03/21 04:12:45;;;;;;;16.50;7.70;;;-0.50;80.70;;;;;;5009098;28;20209;-82
2021/03/21 04:15:15;;;;;;;9.23;6.27;;;-0.40;80.80;;;;;;4965736;28;20676;-83
2021/03/21 04:17:47;;;;;;;10.70;6.53;;;-0.40;80.70;;;;;;4982762;28;20221;-82
2021/03/21 04:20:22;;;;;;;9.10;6.57;;;-0.40;80.70;;;;;;4991799;28;20215;-82
2021/03/21 04:22:57;;;;;;;9.53;7.10;;;-0.50;80.80;;;;;;4993213;28;20295;-82
2021/03/21 04:25:30;;;;;;;10.47;7.10;;;-0.40;80.80;;;;;;4975592;28;20251;-82
2021/03/21 04:28:04;;;;;;;11.10;6.70;;;-0.50;80.90;;;;;;4996202;28;20307;-81
2021/03/21 04:30:37;;;;;;;12.50;6.67;;;-0.50;80.90;;;;;;5011737;28;20209;-80
2021/03/21 04:33:08;;;;;;;8.60;5.83;;;-0.50;80.90;;;;;;5001013;28;20359;-83
2021/03/21 04:35:44;;;;;;;12.27;7.00;;;-0.40;80.80;;;;;;4963654;28;20240;-84
2021/03/21 04:38:18;;;;;;;10.00;6.83;;;-0.50;80.80;;;;;;5003311;28;20213;-82
2021/03/21 04:40:47;;;;;;;12.30;7.03;;;-0.50;80.80;;;;;;4993138;28;20244;-83
2021/03/21 04:43:18;;;;;;;11.50;6.97;;;-0.50;80.80;;;;;;4999333;28;20233;-83
2021/03/21 04:45:51;;;;;;;10.30;7.20;;;-0.40;80.90;;;;;;4979756;28;20218;-82
2021/03/21 04:48:23;;;;;;;9.90;6.47;;;-0.40;80.90;;;;;;5012440;28;20294;-83
2021/03/21 04:50:57;;;;;;;10.87;7.60;;;-0.40;80.80;;;;;;5014053;28;20436;-81
2021/03/21 04:53:37;;;;;;;9.70;6.70;;;-0.20;80.90;;;;;;5005247;28;20217;-82
2021/03/21 04:56:15;;;;;;;9.57;6.37;;;-0.40;80.80;;;;;;4985807;28;20220;-83
2021/03/21 04:58:47;;;;;;;13.37;7.37;;;-0.40;80.70;;;;;;5007268;28;20206;-83
2021/03/21 05:01:20;;;;;;;11.27;6.93;;;-0.30;80.70;;;;;;5003847;28;20441;-84
2021/03/21 05:03:56;;;;;;;9.93;6.57;;;-0.40;80.70;;;;;;4996233;28;20523;-83
2021/03/21 05:06:38;;;;;;;11.33;7.13;;;-0.30;80.70;;;;;;4948918;28;20250;-85
2021/03/21 05:09:11;;;;;;;11.10;6.70;;;-0.30;80.70;;;;;;4997939;28;20211;-82
2021/03/21 05:11:44;;;;;;;11.73;6.17;;;-0.30;80.70;;;;;;5000017;28;20224;-83
2021/03/21 05:14:22;;;;;;;10.50;6.90;;;-0.30;80.60;;;;;;5012340;28;20222;-83
2021/03/21 05:17:02;;;;;;;9.50;6.40;;;-0.30;80.60;;;;;;4964560;28;20485;-82
2021/03/21 05:19:40;;;;;;;8.90;6.40;;;-0.30;80.70;;;;;;4993537;28;20654;-82
2021/03/21 05:22:18;;;;;;;10.97;6.30;;;-0.20;80.50;;;;;;5008670;28;20218;-82
2021/03/21 05:24:53;;;;;;;8.77;7.00;;;-0.30;80.50;;;;;;4988084;28;20242;-83
2021/03/21 05:27:26;;;;;;;11.87;6.83;;;-0.20;80.40;;;;;;4981205;28;20307;-82
2021/03/21 05:30:01;;;;;;;11.93;6.83;;;-0.20;80.50;;;;;;4990765;28;20198;-81
2021/03/21 05:32:31;;;;;;;8.70;6.43;;;-0.20;80.40;;;;;;4981127;28;20658;-83
2021/03/21 05:35:00;;;;;;;12.97;7.00;;;-0.10;80.30;;;;;;4978506;28;20408;-81
2021/03/21 05:37:46;;;;;;;9.73;6.50;;;-0.10;80.30;;;;;;4974898;28;20229;-83
2021/03/21 05:40:58;;;;;;;9.33;6.17;;;-0.10;80.10;;;;;;4990094;28;20222;-82
2021/03/21 05:44:02;;;;;;;8.83;6.40;;;-0.10;80.20;;;;;;4995391;28;20236;-81
2021/03/21 05:46:52;;;;;;;9.73;5.87;;;-0.10;80.00;;;;;;4939489;28;20239;-83
2021/03/21 05:50:03;;;;;;;11.80;7.07;;;0.00;80.10;;;;;;4992762;28;20726;-83
2021/03/21 05:52:57;;;;;;;9.23;5.67;;;0.00;79.90;;;;;;4989107;28;20214;-82
2021/03/21 05:55:54;;;;;;;11.77;7.27;;;0.00;79.80;;;;;;4971775;28;21273;-84
2021/03/21 05:59:03;;;;;;;11.37;6.70;;;0.10;79.80;;;;;;5003321;28;20221;-85
2021/03/21 06:02:13;;;;;;;10.30;6.50;;;0.20;79.50;;;;;;4994891;28;20212;-82
2021/03/21 06:05:14;;;;;;;9.03;6.47;;;0.20;79.50;;;;;;4952176;28;20266;-84
2021/03/21 06:08:14;;;;;;;8.97;6.80;;;0.20;79.40;;;;;;4982746;28;20734;-81
2021/03/21 06:11:27;;;;;;;12.17;7.43;;;0.20;79.40;;;;;;4992143;28;20202;-82
2021/03/21 06:14:07;;;;;;;13.17;7.07;;;0.20;79.40;;;;;;4950508;28;20249;-83
2021/03/21 06:16:53;;;;;;;10.60;6.93;;;0.30;79.40;;;;;;4981541;28;20225;-83
2021/03/21 06:19:54;;;;;;;9.73;6.30;;;0.30;79.40;;;;;;5011934;28;20200;-83
2021/03/21 06:22:57;;;;;;;10.37;6.67;;;0.30;79.10;;;;;;4996198;28;20194;-82
2021/03/21 06:25:54;;;;;;;12.30;6.47;;;0.40;79.10;;;;;;4968212;28;21161;-82
2021/03/21 06:28:54;;;;;;;9.57;6.43;;;0.40;79.10;;;;;;4959146;28;20480;-82
2021/03/21 06:31:47;;;;;;;12.63;7.37;;;0.40;79.10;;;;;;5001707;28;20234;-81
2021/03/21 06:34:26;;;;;;;9.87;6.57;;;0.50;79.00;;;;;;5009761;28;20239;-81
2021/03/21 06:36:59;;;;;;;9.87;6.80;;;0.50;78.90;;;;;;4987040;28;20215;-85
2021/03/21 06:40:02;;;;;;;9.10;6.73;;;0.50;79.00;;;;;;5005426;28;20207;-83
2021/03/21 06:43:07;;;;;;;11.93;7.70;;;0.50;79.00;;;;;;4992413;28;20203;-82
2021/03/21 06:45:59;;;;;;;11.53;7.00;;;0.50;79.10;;;;;;4983052;28;20238;-84
2021/03/21 06:49:27;;;;;;;10.27;6.70;;;0.60;79.10;;;;;;4995399;28;20197;-82
2021/03/21 06:52:11;;;;;;;11.67;6.70;;;0.60;79.00;;;;;;4830918;29;20344;-83
2021/03/21 06:55:10;;;;;;;10.33;6.57;;;0.60;79.10;;;;;;4980084;28;20228;-82
2021/03/21 06:58:08;;;;;;;11.97;7.30;;;0.60;79.10;;;;;;5003511;28;20322;-81
2021/03/21 07:00:56;;;;;;;12.30;7.23;;;0.70;79.20;;;;;;4991740;28;20218;-82
2021/03/21 07:04:17;;;;;;;10.90;7.50;;;0.80;79.50;;;;;;5007013;28;20188;-82
2021/03/21 07:07:27;;;;;;;9.77;7.43;;;0.80;79.20;;;;;;5002354;28;20235;-82
2021/03/21 07:10:43;;;;;;;11.00;7.27;;;0.80;79.20;;;;;;4998507;28;20201;-83
2021/03/21 07:13:47;;;;;;;12.33;7.20;;;0.80;79.30;;;;;;4892941;28;20222;-83
2021/03/21 07:16:42;;;;;;;10.60;7.13;;;1.00;79.50;;;;;;4981122;28;20223;-82
2021/03/21 07:19:49;;;;;;;10.93;7.50;;;0.90;79.50;;;;;;5013624;28;20184;-84
2021/03/21 07:22:59;;;;;;;12.63;7.50;;;1.00;79.60;;;;;;5017263;28;20279;-83
2021/03/21 07:26:04;;;;;;;10.27;7.00;;;1.00;79.70;;;;;;4980171;28;20226;-84
2021/03/21 07:28:54;;;;;;;11.00;7.07;;;1.00;79.80;;;;;;5019150;28;20200;-82
2021/03/21 07:31:42;;;;;;;15.03;7.27;;;1.00;80.00;;;;;;5001837;28;20259;-81
2021/03/21 07:34:35;;;;;;;12.40;7.67;;;1.10;80.00;;;;;;5001609;28;20228;-83
2021/03/21 07:37:16;;;;;;;9.90;6.93;;;1.10;79.90;;;;;;4985805;28;20220;-83
2021/03/21 07:39:57;;;;;;;11.60;8.53;;;1.10;80.00;;;;;;4995239;28;20180;-83
2021/03/21 07:42:55;;;;;;;12.83;8.57;;;1.20;80.70;;;;;;5013056;28;20213;-83
2021/03/21 07:45:53;;;;;;;12.40;8.13;;;1.30;80.90;;;;;;4987850;28;20573;-83
2021/03/21 07:48:37;;;;;;;14.67;7.97;;;1.30;80.80;;;;;;5005806;28;20315;-82
2021/03/21 07:51:17;;;;;;;11.93;7.90;;;1.40;81.10;;;;;;5004182;28;20199;-83
2021/03/21 07:54:01;;;;;;;8.87;7.93;;;1.40;81.20;;;;;;5005095;28;20199;-83
2021/03/21 07:56:35;;;;;;;12.73;8.47;;;1.20;81.60;;;;;;4959137;28;20301;-83
2021/03/21 07:59:07;;;;;;;11.90;7.97;;;1.10;82.30;;;;;;5005022;28;20258;-83
2021/03/21 08:01:36;;;;;;;13.47;9.17;;;1.00;82.60;;;;;;5004902;28;20213;-83
2021/03/21 08:04:12;;;;;;;13.83;8.97;;;0.90;83.20;;;;;;5000922;28;20208;-83
2021/03/21 08:06:44;;;;;;;13.93;9.37;;;0.90;83.40;;;;;;4973351;28;20278;-82
2021/03/21 08:09:17;;;;;;;16.13;9.97;;;0.90;83.80;;;;;;5012275;28;20187;-83
2021/03/21 08:11:51;;;;;;;16.40;9.27;;;0.90;83.90;;;;;;5017034;28;20211;-82
2021/03/21 08:17:22;;;;;;;15.77;9.43;;;0.90;84.30;;;;;;5201191;23;20259;-82
2021/03/21 08:20:02;;;;;;;14.20;9.83;;;0.90;84.70;;;;;;4971109;28;20213;-82
2021/03/21 08:22:39;;;;;;;13.90;10.07;;;0.90;84.80;;;;;;4968815;28;20315;-82
2021/03/21 08:25:22;;;;;;;14.13;10.33;;;0.90;85.00;;;;;;4948319;28;20228;-84
2021/03/21 08:27:54;;;;;;;14.47;9.90;;;0.80;85.30;;;;;;4965023;28;20227;-83
2021/03/21 08:30:45;;;;;;;14.83;10.47;;;0.90;85.40;;;;;;4983863;28;20212;-84
2021/03/21 08:33:30;;;;;;;17.83;11.37;;;0.90;85.30;;;;;;4965776;28;20201;-84
2021/03/21 08:36:17;;;;;;;14.10;9.70;;;0.90;85.20;;;;;;4948592;28;20450;-85
2021/03/21 08:39:01;;;;;;;13.57;10.80;;;1.00;84.80;;;;;;4977772;28;20196;-82
2021/03/21 08:41:32;;;;;;;18.37;10.47;;;1.00;84.70;;;;;;4978514;28;20205;-83
2021/03/21 08:44:03;;;;;;;13.93;11.17;;;1.00;84.70;;;;;;4978508;28;20192;-82
2021/03/21 08:46:32;;;;;;;16.17;11.07;;;1.00;85.10;;;;;;4951281;28;20940;-83
2021/03/21 08:49:06;;;;;;;17.10;10.90;;;1.00;85.50;;;;;;4977303;28;20205;-84
2021/03/21 08:51:44;;;;;;;17.67;11.00;;;0.90;86.00;;;;;;4977064;28;20214;-81
2021/03/21 08:54:32;;;;;;;16.73;10.90;;;0.90;86.80;;;;;;4963998;28;20219;-82
2021/03/21 08:57:07;;;;;;;18.80;11.77;;;0.80;86.90;;;;;;4974721;23;20276;-82
2021/03/21 08:59:42;;;;;;;14.20;11.37;;;0.80;87.20;;;;;;4987507;28;20494;-83
2021/03/21 09:02:14;;;;;;;16.90;11.97;;;0.90;87.30;;;;;;4996131;28;20176;-84
2021/03/21 09:04:46;;;;;;;15.83;11.87;;;1.00;87.30;;;;;;4980124;28;20956;-83
2021/03/21 09:07:22;;;;;;;19.73;12.17;;;0.90;87.20;;;;;;5049199;23;20314;-85
2021/03/21 09:10:32;;;;;;;18.13;12.13;;;0.90;87.10;;;;;;4970672;28;20203;-81
2021/03/21 09:13:24;;;;;;;21.90;11.90;;;0.90;87.20;;;;;;4940249;28;20783;-82
2021/03/21 09:16:09;;;;;;;21.07;12.40;;;0.90;87.60;;;;;;4935631;28;20260;-84
2021/03/21 09:18:45;;;;;;;17.60;11.77;;;0.90;88.00;;;;;;4970991;28;20216;-83
2021/03/21 09:21:25;;;;;;;16.97;11.87;;;0.90;88.50;;;;;;4972267;28;20273;-85
2021/03/21 09:27:30;;;;;;;19.67;12.00;;;0.90;88.70;;;;;;4954726;28;20216;-83
2021/03/21 09:30:21;;;;;;;18.43;12.73;;;0.70;88.60;;;;;;4967604;28;20210;-81
2021/03/21 09:36:02;;;;;;;17.90;13.97;;;0.90;89.10;;;;;;4953608;28;20236;-85
2021/03/21 09:41:54;;;;;;;19.63;13.57;;;0.90;89.30;;;;;;4921287;29;20230;-83
2021/03/21 09:44:42;;;;;;;20.20;13.00;;;0.80;89.70;;;;;;4929597;29;20282;-85
2021/03/21 09:47:35;;;;;;;21.30;13.13;;;1.00;89.80;;;;;;4915528;29;20218;-83
2021/03/21 09:50:38;;;;;;;17.13;12.70;;;1.00;90.30;;;;;;4936592;29;20755;-84
2021/03/21 09:53:57;;;;;;;21.43;13.03;;;1.00;89.90;;;;;;4919709;29;20234;-84
2021/03/21 09:56:36;;;;;;;22.90;14.17;;;1.00;89.80;;;;;;4898269;29;20253;-84
2021/03/21 09:59:14;;;;;;;19.83;13.33;;;1.10;89.80;;;;;;4928252;29;20217;-82
2021/03/21 10:01:54;;;;;;;22.27;15.63;;;1.10;90.00;;;;;;4915934;29;20220;-83
2021/03/21 10:07:45;;;;;;;21.10;13.83;;;1.20;89.40;;;;;;4932701;28;20309;-81
2021/03/21 10:10:23;;;;;;;21.13;14.10;;;1.30;89.60;;;;;;5015100;23;20235;-83
2021/03/21 10:13:03;;;;;;;23.73;14.43;;;1.30;89.30;;;;;;5149822;23;20252;-83
2021/03/21 10:16:35;;;;;;;22.80;15.27;;;1.30;89.70;;;;;;5095980;23;20307;-83
2021/03/21 10:19:09;;;;;;;21.83;14.13;;;1.30;89.90;;;;;;5005028;28;20274;-83
2021/03/21 10:21:40;;;;;;;19.63;13.90;;;1.30;90.40;;;;;;4993797;28;20212;-83
2021/03/21 10:24:30;;;;;;;21.03;14.63;;;1.30;90.50;;;;;;4992639;28;20318;-83
2021/03/21 10:27:39;;;;;;;22.63;15.03;;;1.20;90.60;;;;;;4977811;28;20800;-84
2021/03/21 10:30:23;;;;;;;21.30;14.37;;;1.30;90.70;;;;;;4995411;28;20208;-83
2021/03/21 10:33:29;;;;;;;20.40;14.67;;;1.20;91.10;;;;;;4986305;28;20301;-84
2021/03/21 10:35:58;;;;;;;27.00;15.70;;;1.20;91.40;;;;;;4973694;28;20223;-83
2021/03/21 10:38:50;;;;;;;26.43;15.70;;;1.10;91.70;;;;;;5001901;28;20646;-83
2021/03/21 10:41:58;;;;;;;23.07;16.47;;;1.10;92.70;;;;;;4998059;28;20214;-83
2021/03/21 10:44:57;;;;;;;25.27;16.60;;;1.00;92.90;;;;;;4999452;28;20281;-84
2021/03/21 10:47:41;;;;;;;25.50;17.50;;;1.10;93.30;;;;;;5006811;28;20273;-81
2021/03/21 10:50:44;;;;;;;25.70;15.50;;;1.10;93.00;;;;;;5013640;28;20207;-83
2021/03/21 10:53:49;;;;;;;22.20;16.13;;;1.20;92.90;;;;;;5007260;28;20712;-82
2021/03/21 10:59:23;;;;;;;21.93;15.93;;;1.30;92.00;;;;;;4987002;28;20259;-83
2021/03/21 11:02:20;;;;;;;22.20;16.67;;;1.50;92.00;;;;;;4997000;28;20204;-82
2021/03/21 11:05:04;;;;;;;24.57;16.70;;;1.60;91.10;;;;;;4974816;28;20239;-82
2021/03/21 11:07:32;;;;;;;22.37;16.63;;;1.70;90.60;;;;;;5004944;28;20222;-82
2021/03/21 11:10:06;;;;;;;23.17;15.83;;;1.70;90.00;;;;;;5015756;28;20200;-84
2021/03/21 11:12:37;;;;;;;25.70;17.00;;;1.60;89.80;;;;;;5014903;28;20377;-83
2021/03/21 11:15:27;;;;;;;22.83;16.07;;;1.60;90.40;;;;;;4974739;28;20240;-83
2021/03/21 11:18:02;;;;;;;22.27;16.40;;;1.70;90.30;;;;;;4985926;28;20378;-82
2021/03/21 11:20:31;;;;;;;26.60;17.17;;;1.80;90.00;;;;;;5005086;28;20219;-83
2021/03/21 11:23:05;;;;;;;24.30;17.30;;;1.70;90.00;;;;;;4995050;28;20234;-82
2021/03/21 11:25:37;;;;;;;24.83;17.10;;;1.90;89.70;;;;;;4964934;28;20219;-83
2021/03/21 11:28:06;;;;;;;22.80;16.50;;;2.00;89.70;;;;;;4982002;28;20227;-83
2021/03/21 11:30:34;;;;;;;24.17;16.43;;;2.00;89.00;;;;;;4975209;28;20226;-86
2021/03/21 11:33:25;;;;;;;24.17;17.13;;;1.90;89.30;;;;;;4972311;28;20216;-84
2021/03/21 11:36:11;;;;;;;23.17;16.23;;;2.00;89.50;;;;;;4943921;28;20462;-84
2021/03/21 11:38:41;;;;;;;25.27;17.33;;;2.00;89.70;;;;;;4999923;28;20258;-83
2021/03/21 11:41:34;;;;;;;24.30;17.13;;;2.00;89.10;;;;;;4975279;28;20208;-84
2021/03/21 11:44:17;;;;;;;23.40;16.33;;;1.90;89.00;;;;;;4995752;28;20572;-83
2021/03/21 11:46:46;;;;;;;24.50;16.57;;;1.90;89.40;;;;;;4973177;28;20266;-84
2021/03/21 11:49:16;;;;;;;23.83;17.43;;;1.90;89.60;;;;;;4998898;28;20654;-84
2021/03/21 11:51:48;;;;;;;23.77;16.97;;;1.90;89.80;;;;;;4996731;28;20914;-83
2021/03/21 11:54:26;;;;;;;23.93;17.30;;;2.00;89.80;;;;;;4970073;28;20208;-84
2021/03/21 11:57:12;;;;;;;26.03;17.80;;;2.00;90.00;;;;;;4979421;28;20246;-82
2021/03/21 11:59:55;;;;;;;23.73;16.77;;;2.10;90.00;;;;;;5012239;28;20247;-83
2021/03/21 12:02:34;;;;;;;21.13;16.50;;;2.40;90.00;;;;;;5005439;28;20437;-83
2021/03/21 12:05:11;;;;;;;22.57;16.67;;;2.60;89.30;;;;;;4975168;28;20226;-84
2021/03/21 12:07:38;;;;;;;23.00;16.83;;;2.80;88.50;;;;;;4981843;28;20216;-84
2021/03/21 12:10:15;;;;;;;23.60;17.07;;;2.90;87.60;;;;;;4992105;28;20218;-83
2021/03/21 12:12:45;;;;;;;21.67;16.73;;;2.90;87.40;;;;;;4995286;28;20212;-86
2021/03/21 12:15:34;;;;;;;23.80;16.63;;;2.90;87.50;;;;;;4981021;28;20232;-83
2021/03/21 12:18:06;;;;;;;23.00;16.70;;;2.90;88.00;;;;;;4987291;28;20282;-82
2021/03/21 12:20:42;;;;;;;20.97;15.80;;;2.80;88.10;;;;;;5000596;28;20624;-84
2021/03/21 12:23:28;;;;;;;25.20;17.50;;;2.80;88.50;;;;;;4991895;28;20452;-84
2021/03/21 12:26:21;;;;;;;22.13;16.23;;;2.90;88.80;;;;;;4982034;28;20430;-83
2021/03/21 12:28:59;;;;;;;23.47;16.40;;;2.80;89.00;;;;;;5012346;28;20191;-84
2021/03/21 12:31:50;;;;;;;21.77;16.47;;;2.90;89.30;;;;;;5009632;28;20230;-83
2021/03/21 12:34:36;;;;;;;23.87;17.60;;;2.80;89.70;;;;;;5004368;28;20211;-84
2021/03/21 12:37:19;;;;;;;22.37;16.43;;;2.80;89.80;;;;;;4996774;28;20320;-84
2021/03/21 12:39:53;;;;;;;22.53;17.80;;;2.80;89.80;;;;;;5011260;28;20236;-83
2021/03/21 12:42:33;;;;;;;25.30;17.80;;;2.70;90.00;;;;;;4980970;28;20218;-85
2021/03/21 12:45:18;;;;;;;24.60;17.07;;;2.60;90.40;;;;;;4994532;28;20219;-84
2021/03/21 12:48:02;;;;;;;25.27;17.17;;;2.60;90.80;;;;;;4974458;28;20675;-83
2021/03/21 12:50:46;;;;;;;22.93;17.40;;;2.50;90.80;;;;;;4989456;28;20723;-82
2021/03/21 12:53:23;;;;;;;25.60;17.60;;;2.40;91.20;;;;;;4983575;28;20241;-83
2021/03/21 12:55:53;;;;;;;26.07;18.07;;;2.40;92.00;;;;;;4970749;28;20256;-82
2021/03/21 12:58:22;;;;;;;21.43;15.97;;;2.30;91.70;;;;;;4999525;28;20226;-82
2021/03/21 13:01:03;;;;;;;24.90;17.37;;;2.30;91.30;;;;;;4997916;28;20208;-84
2021/03/21 13:03:48;;;;;;;25.83;18.30;;;2.40;91.40;;;;;;5003861;28;20584;-82
2021/03/21 13:06:20;;;;;;;25.30;17.57;;;2.40;91.40;;;;;;4983109;28;20208;-83
2021/03/21 13:08:48;;;;;;;24.00;18.53;;;2.40;91.30;;;;;;5011605;28;20219;-84
2021/03/21 13:11:16;;;;;;;24.60;18.10;;;2.50;91.10;;;;;;5000002;28;20278;-85
2021/03/21 13:13:50;;;;;;;24.07;17.27;;;2.40;91.00;;;;;;5012325;28;20248;-84
2021/03/21 13:16:20;;;;;;;24.73;18.40;;;2.40;90.90;;;;;;4984529;28;20565;-83
2021/03/21 13:18:48;;;;;;;31.57;19.07;;;2.50;91.00;;;;;;5018493;28;20191;-83
2021/03/21 13:21:16;;;;;;;25.93;18.30;;;2.50;91.20;;;;;;5017213;28;20209;-85
2021/03/21 13:23:49;;;;;;;28.97;19.33;;;2.30;91.10;;;;;;5014091;28;20215;-83
2021/03/21 13:26:17;;;;;;;31.30;20.20;;;2.40;91.10;;;;;;4968161;28;20220;-84
2021/03/21 13:28:45;;;;;;;25.63;19.47;;;2.30;91.30;;;;;;5017535;28;20272;-84
2021/03/21 13:31:13;;;;;;;26.20;20.13;;;2.30;91.50;;;;;;5011479;28;20290;-84
2021/03/21 13:33:53;;;;;;;23.83;17.43;;;2.30;91.50;;;;;;5002891;28;20504;-83
2021/03/21 13:36:20;;;;;;;28.10;19.87;;;2.30;91.80;;;;;;4967071;28;20231;-84
2021/03/21 13:38:49;;;;;;;27.63;20.37;;;2.30;91.90;;;;;;5020898;28;20203;-84
2021/03/21 13:41:32;;;;;;;28.77;19.53;;;2.30;92.20;;;;;;5013702;28;20207;-85
2021/03/21 13:44:04;;;;;;;28.63;20.13;;;2.30;92.50;;;;;;5021412;28;20197;-84
2021/03/21 13:46:35;;;;;;;28.77;20.90;;;2.30;92.90;;;;;;4983800;28;20238;-84
2021/03/21 13:49:06;;;;;;;28.03;19.93;;;2.30;93.20;;;;;;5014499;28;20187;-84
2021/03/21 13:51:34;;;;;;;29.03;20.80;;;2.20;93.80;;;;;;5009161;28;20684;-83
2021/03/21 13:54:06;;;;;;;28.47;20.93;;;2.40;94.90;;;;;;5004279;28;20254;-84
2021/03/21 13:56:33;;;;;;;29.80;21.47;;;2.20;95.00;;;;;;4976337;28;20239;-83
2021/03/21 13:59:03;;;;;;;29.13;21.43;;;2.20;95.40;;;;;;5012105;28;20205;-84
2021/03/21 14:01:31;;;;;;;31.03;21.87;;;2.30;95.50;;;;;;5016302;28;20207;-84
2021/03/21 14:04:00;;;;;;;27.43;20.47;;;2.20;94.90;;;;;;5012140;28;20212;-84